• Join FlightAware (Why Join?)
  • Login
  • US Flag 
02:23PM EDT


 

Airport Tracker/Info


-or-


 

Live Flight TrackerFlight Track Log ✈ DAL1981 ✈ 21-Jun-2013 ✈ KSMF - KMSP

Flight Track Log - Related Links

Times and Time Zones

All times are in EDT time to prevent confusion due to time zone crossing. See the DAL1981 flight status page for this flight to view local times or setup timezone preferences in your user account.

Time Position Orientation Groundspeed Altitude Reporting Facility
EDT Latitude Longitude Course Direction KTS MPH feet Rate Location/Type
03:54PM 38.7253 -121.5806 78° East 171 197 1,400  Level Oakland Center
03:55PM 38.7539 -121.5294 54° Northeast 235 270 2,300 1,740 Climbing Oakland Center
03:56PM 38.4974 -121.2515 80° East  Level FlightAware Approximate
03:56PM 38.7536 -121.4333 90° East 264 304 5,000  Level Oakland Center
03:57PM 38.5348 -121.0928 76° East  Level FlightAware Approximate
03:57PM 38.7506 -121.3333 92° East 275 316 7,600  Level Oakland Center
03:58PM 38.5644 -120.9308 78° East  Level FlightAware Approximate
03:58PM 38.7464 -121.2261 93° East 296 341 10,200  Level Oakland Center
03:59PM 38.5915 -120.7680 78° East  Level FlightAware Approximate
03:59PM 38.7442 -121.1086 91° East 326 375 11,400  Level Oakland Center
04:00PM 38.7497 -120.9725 87° East 382 440 12,900 1,560 Climbing Oakland Center
04:01PM 38.8139 -120.8578 54° Northeast 398 458 14,700 1,980 Climbing Oakland Center
04:02PM 38.8972 -120.7164 53° Northeast 412 474 17,000 1,860 Climbing Oakland Center
04:03PM 38.9697 -120.5939 53° Northeast 427 491 18,600 1,560 Climbing Oakland Center
04:04PM 39.0431 -120.4706 53° Northeast 434 499 20,300 1,500 Climbing Oakland Center
04:05PM 39.1167 -120.3433 53° Northeast 442 509 21,700 1,320 Climbing Oakland Center
04:06PM 39.1947 -120.2119 53° Northeast 457 526 23,100 1,260 Climbing Oakland Center
04:07PM 39.2800 -120.0661 53° Northeast 466 536 24,400 1,080 Climbing Oakland Center
04:08PM 39.3603 -119.9297 53° Northeast 475 547 25,400 900 Climbing Oakland Center
04:09PM 39.4411 -119.7900 53° Northeast 482 555 26,300 780 Climbing Oakland Center
04:10PM 39.5217 -119.6475 54° Northeast 489 563 27,100 780 Climbing Oakland Center
04:11PM 39.6058 -119.5017 53° Northeast 501 577 28,000 840 Climbing Oakland Center
04:12PM 39.6864 -119.3500 55° Northeast 507 583 28,900 780 Climbing Oakland Center
04:13PM 39.7469 -119.1769 65° Northeast 519 597 29,700 960 Climbing Oakland Center
04:14PM 39.8156 -118.9689 67° East 517 595 30,900 900 Climbing Oakland Center
04:15PM 39.8733 -118.7939 67° East 520 598 31,600 720 Climbing Oakland Center
04:16PM 39.9308 -118.6189 67° East 522 601 32,400 900 Climbing Oakland Center
04:17PM 39.9878 -118.4464 67° East 518 596 33,500 840 Climbing Oakland Center
04:18PM 40.0425 -118.2742 67° East 514 592 34,200 480 Climbing Oakland Center
04:19PM 40.0975 -118.1019 67° East 512 589 34,600 360 Climbing Oakland Center
04:20PM 40.1458 -117.9528 67° East 512 589 35,000 180 Climbing Salt Lake Center
04:21PM 40.2058 -117.7556 68° East 519 597 35,000  Level Salt Lake Center
04:22PM 40.2406 -117.5772 76° East 525 604 35,000  Level Salt Lake Center
04:23PM 40.2828 -117.3717 75° East 525 604 35,000  Level Salt Lake Center
04:24PM 40.3186 -117.1953 75° East 525 604 35,000  Level Salt Lake Center
04:25PM 40.3542 -117.0192 75° East 524 603 35,000  Level Salt Lake Center
04:26PM 40.3919 -116.8278 75° East 529 609 35,000  Level Salt Lake Center
04:27PM 40.4350 -116.6133 75° East 533 613 35,000  Level Salt Lake Center
04:28PM 40.4694 -116.4344 76° East 531 611 35,000  Level Salt Lake Center
04:30PM 40.5100 -116.2269 76° East 527 606 35,000  Level Salt Lake Center
04:31PM 40.5461 -116.0469 75° East 533 613 35,000  Level Salt Lake Center
04:32PM 40.5839 -115.8381 77° East 527 606 35,000  Level Salt Lake Center
04:33PM 40.6172 -115.6600 76° East 526 605 35,000  Level Salt Lake Center
04:34PM 40.6556 -115.4508 76° East 528 608 35,000  Level Salt Lake Center
04:35PM 40.6894 -115.2714 76° East 528 608 35,000  Level Salt Lake Center
04:36PM 40.7236 -115.0917 76° East 529 609 35,000  Level Salt Lake Center
04:37PM 40.7572 -114.8786 78° East 532 612 35,000  Level Salt Lake Center
04:38PM 40.7842 -114.6969 79° East 529 609 35,000  Level Salt Lake Center
04:39PM 40.8158 -114.4836 79° East 530 610 35,000  Level Salt Lake Center
04:40PM 40.8411 -114.3122 79° East 527 606 35,000  Level Salt Lake Center
04:41PM 40.8728 -114.0831 80° East 529 609 35,000  Level Salt Lake Center
04:42PM 40.9003 -113.8936 79° East 527 606 35,000  Level Salt Lake Center
04:43PM 40.9272 -113.7044 79° East 526 605 35,000  Level Salt Lake Center
04:44PM 40.9528 -113.5131 80° East 529 609 35,000  Level Salt Lake Center
04:45PM 40.9803 -113.3225 79° East 530 610 35,000  Level Salt Lake Center
04:46PM 41.0042 -113.1294 81° East 532 612 35,000  Level Salt Lake Center
04:47PM 41.0356 -112.8981 80° East 534 615 35,000  Level Salt Lake Center
04:48PM 41.0619 -112.7058 80° East 532 612 35,000  Level Salt Lake Center
04:49PM 41.0875 -112.5125 80° East 532 612 35,000  Level Salt Lake Center
04:50PM 41.1114 -112.3172 81° East 536 617 35,000  Level Salt Lake Center
04:51PM 41.1372 -112.1219 80° East 536 617 35,000  Level Salt Lake Center
04:52PM 41.1622 -111.9233 80° East 537 618 35,000  Level Salt Lake Center
04:53PM 41.1878 -111.7231 80° East 535 616 35,000  Level Salt Lake Center
04:54PM 41.2117 -111.5267 81° East 534 615 35,000  Level Salt Lake Center
04:55PM 41.2347 -111.3339 81° East 528 608 35,000  Level Salt Lake Center
04:56PM 41.2556 -111.1428 82° East 524 603 35,000  Level Salt Lake Center
04:57PM 41.2806 -110.9358 81° East 521 600 35,000  Level Salt Lake Center
04:58PM 41.3044 -110.7233 81° East 521 600 35,000  Level Salt Lake Center
04:59PM 41.3244 -110.5417 82° East 519 597 35,000  Level Salt Lake Center
05:00PM 41.3489 -110.3314 81° East 516 594 35,000  Level Salt Lake Center
05:02PM 41.3672 -110.1553 82° East  Level FlightAware Approximate
05:04PM 41.4103 -109.7561 82° East 516 594 35,000  Level Denver Center
05:05PM 41.4294 -109.5767 82° East 512 589 35,000  Level Denver Center
05:06PM 41.4506 -109.3697 82° East 505 581 35,000  Level Denver Center
05:07PM 41.4700 -109.1906 82° East 504 580 35,000  Level Denver Center
05:08PM 41.4897 -108.9964 82° East 520 598 35,000  Level Denver Center
05:09PM 41.4846 -108.9596 82° East  Level FlightAware Approximate
05:09PM 41.5028 -108.8481 83° East 510 587 35,000  Level Denver Center
05:10PM 41.5253 -108.6097 83° East 506 582 35,000  Level Denver Center
05:11PM 41.5453 -108.4022 83° East 506 582 35,000  Level Denver Center
05:12PM 41.5608 -108.2250 83° East 503 579 35,000  Level Denver Center
05:13PM 41.5803 -108.0200 83° East 504 580 35,000  Level Salt Lake Center
05:14PM 41.5958 -107.8439 83° East 500 575 35,000  Level Salt Lake Center
05:15PM 41.6131 -107.6386 84° East 498 573 35,000  Level Salt Lake Center
05:16PM 41.6281 -107.4639 83° East 496 571 35,000  Level Salt Lake Center
05:17PM 41.6428 -107.2917 83° East 489 563 35,000  Level Salt Lake Center
05:18PM 41.6589 -107.0869 84° East 496 571 35,000  Level Salt Lake Center
05:19PM 41.6464 -106.9133 95° East 492 566 35,000  Level Salt Lake Center
05:20PM 41.6133 -106.7183 103° East 485 558 35,000  Level Salt Lake Center
05:21PM 41.5836 -106.5319 102° East 486 559 35,000  Level Salt Lake Center
05:22PM 41.5506 -106.3619 105° East 470 541 35,000  Level Salt Lake Center
05:23PM 41.5172 -106.2008 105° East 470 541 35,000  Level Salt Lake Center
05:24PM 41.4700 -106.0003 107° East 467 537 35,000  Level Denver Center
05:25PM 41.4222 -105.8133 109° East 474 545 35,000  Level Denver Center
05:26PM 41.3800 -105.6561 110° East 473 544 35,000  Level Denver Center
05:28PM 41.3203 -105.4819 114° Southeast 465 535 35,000 120 Level Denver Center
05:29PM 41.2697 -105.3306 114° Southeast 468 539 35,300 480 Climbing Denver Center
05:30PM 41.2111 -105.1536 114° Southeast 470 541 36,000 660 Climbing Denver Center
05:31PM 41.1631 -105.0036 113° Southeast 465 535 36,700 420 Climbing Denver Center
05:32PM 41.1050 -104.8336 114° Southeast 458 527 36,900 120 Climbing Denver Center
05:33PM 41.0528 -104.6844 115° Southeast 463 533 37,000  Climbing Denver Center
05:34PM 40.9853 -104.5550 125° Southeast 443 510 37,000  Level Denver Center
05:35PM 40.8731 -104.4303 140° Southeast 439 505 37,000  Level Denver Center
05:36PM 40.7725 -104.3372 145° Southeast 440 506 37,000  Level Denver Center
05:37PM 40.6525 -104.3081 170° South 443 510 37,100  Climbing Denver Center
05:38PM 40.5331 -104.3008 177° South 429 494 37,000 -60 Descending Denver Center
05:39PM 40.4158 -104.2917 177° South 423 487 37,000  Level Denver Center
05:40PM 40.2989 -104.2808 176° South 420 483 37,000  Level Denver Center
05:41PM 40.1594 -104.2719 177° South 418 481 37,000  Level Denver Center
05:42PM 40.0419 -104.2600 176° South 420 483 37,000  Level Denver Center
05:43PM 39.9253 -104.2358 171° South 422 486 37,000  Level Denver Center
05:44PM 39.8164 -104.1656 154° Southeast 436 502 37,000  Level Denver Center
05:45PM 39.7308 -104.0511 134° Southeast 449 517 37,000  Level Denver Center
05:46PM 39.6828 -103.9050 113° Southeast 457 526 37,000  Level Denver Center
05:47PM 39.6411 -103.7478 109° East 456 525 37,000  Level Denver Center
05:48PM 39.6208 -103.5572 98° East 449 517 37,000  Level Denver Center
05:49PM 39.6264 -103.4275 87° East 450 518 37,000  Level Denver Center
05:50PM 39.6086 -103.2325 97° East 455 524 37,000  Level Denver Center
05:51PM 39.6219 -103.0725 84° East 451 519 37,000 -60 Level Denver Center
05:53PM 39.6533 -102.9125 76° East 457 526 36,900  Descending Denver Center
05:54PM 39.6947 -102.7003 76° East 467 537 37,000  Climbing Denver Center
05:55PM 39.7492 -102.4958 71° East 471 542 37,000  Level Denver Center
05:56PM 39.8067 -102.3514 63° Northeast 469 540 37,000  Level Denver Center
05:57PM 39.8833 -102.1564 63° Northeast 474 545 37,000  Level Denver Center
05:58PM 39.9519 -101.9819 63° Northeast 484 557 37,000  Level Denver Center
05:59PM 40.0103 -101.8342 63° Northeast 482 555 37,000  Level Denver Center
06:00PM 40.0786 -101.6600 63° Northeast 484 557 37,000  Level Denver Center
06:01PM 40.1367 -101.5103 63° Northeast 483 556 37,000  Level Denver Center
06:02PM 40.2039 -101.3347 63° Northeast 483 556 37,000  Level Denver Center
06:03PM 40.2614 -101.1853 63° Northeast 482 555 37,000  Level Denver Center
06:05PM 40.3378 -100.9856 63° Northeast 481 554 37,000  Level Denver Center
06:06PM 40.3953 -100.8344 63° Northeast 486 559 37,000  Level Denver Center
06:07PM 40.4614 -100.6578 64° Northeast 487 560 37,000  Level Denver Center
06:08PM 40.5181 -100.5061 64° Northeast 487 560 37,000  Level Denver Center
06:09PM 40.5847 -100.3292 64° Northeast 487 560 37,000  Level Denver Center
06:10PM 40.6417 -100.1769 64° Northeast 488 562 37,000  Level Denver Center
06:11PM 40.7069 -100.0003 64° Northeast 484 557 37,000  Level Denver Center
06:12PM 40.7717 -99.8267 64° Northeast 488 562 37,000  Level Denver Center
06:13PM 40.8303 -99.6656 64° Northeast 488 562 37,000  Level Denver Center
06:13PM 40.8664 -99.5700 63° Northeast 489 563 37,000  Level Minneapolis Center
06:14PM 40.8889 -99.5028 66° East 490 564 37,000  Level Denver Center
06:15PM 40.9597 -99.3094 64° Northeast 489 563 37,000  Level Denver Center
06:16PM 41.0172 -99.1478 65° Northeast 487 560 37,000  Level Denver Center
06:17PM 41.0803 -98.9706 65° Northeast 487 560 37,000  Level Denver Center
06:18PM 41.1447 -98.7881 65° Northeast 489 563 37,000  Level Denver Center
06:19PM 41.1972 -98.6431 64° Northeast 488 562 37,000  Level Denver Center
06:20PM 41.2542 -98.4794 65° Northeast 488 562 37,000  Level Denver Center
06:22PM 41.3453 -98.2167 65° Northeast 489 563 37,000  Level Minneapolis Center
06:23PM 41.3994 -98.0622 65° Northeast 488 562 37,000  Level Minneapolis Center
06:24PM 41.4567 -97.8967 65° Northeast 491 565 37,000  Level Minneapolis Center
06:25PM 41.5117 -97.7331 66° East 484 557 37,000  Level Minneapolis Center
06:26PM 41.5794 -97.5350 65° Northeast 487 560 37,000  Level Minneapolis Center
06:27PM 41.6358 -97.3700 65° Northeast 487 560 37,000  Level Minneapolis Center
06:28PM 41.6900 -97.2058 66° East 483 556 37,000  Level Minneapolis Center
06:29PM 41.7461 -97.0419 65° Northeast 483 556 37,000  Level Minneapolis Center
06:30PM 41.7997 -96.8775 66° East 481 554 37,000  Level Minneapolis Center
06:31PM 41.8539 -96.7106 66° East 485 558 37,000  Level Minneapolis Center
06:32PM 41.9086 -96.5461 66° East 480 552 37,000  Level Minneapolis Center
06:33PM 41.9528 -96.4094 66° East 488 562 37,000  Level Minneapolis Center
06:34PM 42.0283 -96.1736 67° East 487 560 37,000  Level Minneapolis Center
06:35PM 42.0831 -96.0028 67° East 494 568 37,000  Level Minneapolis Center
06:36PM 42.1375 -95.8314 67° East 496 571 37,000  Level Minneapolis Center
06:37PM 42.1903 -95.6622 67° East 492 566 37,000  Level Minneapolis Center
06:38PM 42.2433 -95.4953 67° East 486 559 37,000 -120 Level Minneapolis Center
06:39PM 42.2961 -95.3261 67° East 487 560 36,800 -720 Descending Minneapolis Center
06:40PM 42.3594 -95.1231 67° East 488 562 35,600 -900 Descending Minneapolis Center
06:41PM 42.4122 -94.9514 67° East 491 565 35,000 -300 Descending Minneapolis Center
06:42PM 42.4619 -94.7853 68° East 481 554 35,000  Level Minneapolis Center
06:43PM 42.5122 -94.6200 68° East 476 548 35,000  Level Minneapolis Center
06:44PM 42.5597 -94.4547 69° East 478 550 35,000  Level Minneapolis Center
06:46PM 42.6094 -94.2892 68° East 477 549 35,100  Climbing Minneapolis Center
06:47PM 42.6733 -94.0986 65° Northeast 467 537 35,000 -60 Descending Minneapolis Center
06:48PM 42.7233 -93.9394 67° East 464 534 35,000  Level Minneapolis Center
06:49PM 42.8108 -93.8197 45° Northeast 457 526 35,000 -420 Level Minneapolis Center
06:50PM 42.9064 -93.7067 41° Northeast 460 529 34,200 -840 Descending Minneapolis Center
06:51PM 42.9256 -93.5450 81° East 436 502 33,300 -1,020 Descending Minneapolis Center
06:52PM 42.9267 -93.3464 89° East 440 506 32,100 -1,080 Descending Minneapolis Center
06:53PM 42.9269 -93.1850 90° East 434 499 31,100 -1,200 Descending Minneapolis Center
06:54PM 42.9336 -93.0289 87° East 420 483 29,700 -1,140 Descending Minneapolis Center
06:55PM 43.0233 -92.9414 35° Northeast 412 474 28,800 -960 Descending Minneapolis Center
06:56PM 43.1428 -92.9711 350° North 439 505 27,800 -1,020 Descending Minneapolis Center
06:57PM 43.2833 -93.0333 342° North 443 510 26,700 -780 Descending Minneapolis Center
06:58PM 43.3975 -93.0842 342° North 437 503 26,200 -540 Descending Minneapolis Center
06:59PM 43.5111 -93.1369 341° North 435 501 25,700 -960 Descending Minneapolis Center
07:00PM 43.6208 -93.1850 342° North 431 496 24,300 -2,100 Descending Minneapolis Center
07:01PM 43.7544 -93.2447 342° North 421 484 21,400 -2,220 Descending Minneapolis Center
07:02PM 43.8528 -93.2881 342° North 380 437 19,800 -1,980 Descending Minneapolis Center
07:03PM 43.9397 -93.3283 342° North 336 387 17,400 -2,520 Descending Minneapolis Center
07:04PM 44.0258 -93.3533 348° North 324 373 14,600 -2,640 Descending Minneapolis Center
07:05PM 44.1169 -93.3528 360° North 329 379 12,000 -1,800 Descending Minneapolis Center
07:06PM 44.2122 -93.3558 359° North 343 395 11,000 -540 Descending Minneapolis Center
07:07PM 44.3347 -93.3572 360° North 364 419 11,000  Level Minneapolis Center
07:08PM 44.4306 -93.3222 15° North 367 422 11,000  Level Minneapolis Center
07:09PM 44.5219 -93.2578 27° Northeast 368 423 11,000 -180 Level Minneapolis Center
07:10PM 44.6078 -93.1981 26° Northeast 349 402 10,700 -900 Descending Minneapolis Center
07:11PM 44.6892 -93.2178 350° North 313 360 9,200 -1,320 Descending Minneapolis Center
07:12PM 44.7683 -93.2689 335° Northwest 297 342 8,000 -600 Descending Minneapolis Center
07:13PM 44.8289 -93.3339 323° Northwest 270 311 8,000 -780 Level Minneapolis Center
07:14PM 44.8731 -93.4261 304° West 239 275 6,500 -1,020 Descending Minneapolis Center
07:16PM 44.9083 -93.5003 304° West 229 264 6,000 -300 Descending Minneapolis Center
07:17PM 44.9400 -93.5672 304° West 210 242 6,000 -480 Level Minneapolis Center
07:18PM 44.9919 -93.5672 360° North 216 249 5,100 -540 Descending Minneapolis Center
07:19PM 45.0022 -93.5006 78° East 197 227 4,900 -240 Descending Minneapolis Center